Time;durP1;ratioP1;P1;durP2;ratioP2;P2;SDS_P1;SDS_P2;PMS_P1;PMS_P2;Temp;Humidity;BMP_temperature;BMP_pressure;BME280_temperature;BME280_humidity;BME280_pressure;Samples;Min_cycle;Max_cycle;Signal;HPM_P1;HPM_P2
2022/08/23 00:01:13;;;;;;;1.20;1.10;;;;;;;17.26;71.03;95390.97;4364255;32;20242;-62
2022/08/23 00:03:39;;;;;;;1.10;1.07;;;;;;;17.22;71.06;95382.03;4355892;32;20215;-62
2022/08/23 00:06:09;;;;;;;0.90;0.90;;;;;;;17.00;72.04;95380.56;4359107;32;20255;-62
2022/08/23 00:08:36;;;;;;;2.13;0.90;;;;;;;16.98;72.49;95385.47;4359140;32;20188;-62
2022/08/23 00:11:06;;;;;;;0.70;0.70;;;;;;;17.17;72.03;95380.34;4362443;32;20185;-62
2022/08/23 00:13:32;;;;;;;0.50;0.50;;;;;;;16.94;73.06;95382.66;4374304;32;20196;-62
2022/08/23 00:15:59;;;;;;;1.17;0.77;;;;;;;17.01;72.78;95385.59;4370849;32;20232;-62
2022/08/23 00:18:25;;;;;;;0.90;0.90;;;;;;;17.12;72.38;95383.25;4350299;32;20245;-62
2022/08/23 00:20:50;;;;;;;0.60;0.60;;;;;;;17.05;72.49;95381.09;4372854;32;20214;-62
2022/08/23 00:23:16;;;;;;;0.90;0.90;;;;;;;17.05;72.68;95381.09;4367053;32;20192;-64
2022/08/23 00:25:42;;;;;;;0.97;0.97;;;;;;;16.87;73.38;95373.59;4360562;32;20193;-64
2022/08/23 00:28:08;;;;;;;0.77;0.77;;;;;;;16.95;72.97;95373.50;4361693;32;20220;-61
2022/08/23 00:30:34;;;;;;;0.73;0.73;;;;;;;16.96;72.84;95374.28;4345507;32;20194;-61
2022/08/23 00:32:59;;;;;;;1.13;1.13;;;;;;;16.82;73.44;95379.97;4359595;32;20310;-61
2022/08/23 00:35:25;;;;;;;0.97;0.97;;;;;;;16.79;73.82;95373.34;4361309;32;20198;-61
2022/08/23 00:37:50;;;;;;;2.30;0.93;;;;;;;16.75;73.82;95374.34;4350825;32;20177;-61
2022/08/23 00:40:17;;;;;;;0.80;0.80;;;;;;;16.58;74.27;95372.59;4356852;32;20181;-61
2022/08/23 00:49:03;;;;;;;0.60;0.60;;;;;;;16.64;73.89;95371.28;4313972;33;20336;-64
2022/08/23 00:51:57;;;;;;;0.83;0.83;;;;;;;16.81;73.29;95373.03;4324647;33;20236;-64
2022/08/23 00:54:26;;;;;;;5.30;1.30;;;;;;;16.85;73.30;95376.59;4356519;32;20181;-64
2022/08/23 00:56:54;;;;;;;0.70;0.70;;;;;;;16.68;73.78;95374.09;4357495;32;20185;-64
2022/08/23 00:59:21;;;;;;;1.27;1.17;;;;;;;16.52;74.63;95368.53;4360927;32;20185;-64
2022/08/23 01:01:47;;;;;;;0.80;0.80;;;;;;;16.53;74.81;95374.69;4359888;32;20227;-63
2022/08/23 01:04:16;;;;;;;1.30;1.00;;;;;;;16.60;75.08;95374.94;4360829;32;20209;-64
2022/08/23 01:07:00;;;;;;;0.93;0.93;;;;;;;16.72;74.36;95373.09;4343827;32;20283;-64
2022/08/23 01:09:26;;;;;;;0.30;0.30;;;;;;;16.61;74.53;95376.50;4359379;32;20264;-64
2022/08/23 01:12:06;;;;;;;0.80;0.80;;;;;;;16.26;76.38;95370.66;4358932;32;20177;-64
2022/08/23 01:14:39;;;;;;;0.80;0.80;;;;;;;16.44;76.00;95372.84;4366696;32;20230;-64
2022/08/23 01:17:13;;;;;;;1.67;1.57;;;;;;;16.60;75.08;95380.31;4371992;32;20185;-64
2022/08/23 01:19:48;;;;;;;1.07;1.07;;;;;;;16.55;75.30;95378.59;4371961;32;20199;-63
2022/08/23 01:22:37;;;;;;;1.13;1.13;;;;;;;16.63;74.50;95371.59;4363499;32;20229;-64
2022/08/23 01:25:07;;;;;;;0.80;0.80;;;;;;;16.43;75.08;95381.22;4355197;32;20208;-64
2022/08/23 01:27:33;;;;;;;0.50;0.50;;;;;;;16.47;75.33;95379.47;4361635;32;20198;-64
2022/08/23 01:29:58;;;;;;;1.43;1.33;;;;;;;16.31;75.84;95373.16;4367890;32;20223;-64
2022/08/23 01:32:24;;;;;;;0.80;0.80;;;;;;;16.30;75.99;95374.25;4359212;32;20188;-64
2022/08/23 01:34:50;;;;;;;1.40;1.33;;;;;;;16.26;76.15;95376.81;4355158;32;20199;-64
2022/08/23 01:37:18;;;;;;;0.77;0.77;;;;;;;16.31;75.77;95387.31;4367216;32;20219;-64
2022/08/23 01:39:43;;;;;;;1.43;1.37;;;;;;;16.23;76.62;95387.38;4364270;32;20203;-64
2022/08/23 01:42:10;;;;;;;1.57;1.47;;;;;;;16.11;76.83;95377.41;4345736;32;20192;-63
2022/08/23 01:44:35;;;;;;;1.30;1.20;;;;;;;16.30;76.48;95383.06;4358103;32;20181;-64
2022/08/23 01:47:01;;;;;;;0.70;0.70;;;;;;;16.23;76.68;95382.03;4370931;32;20188;-64
2022/08/23 01:49:26;;;;;;;0.97;0.97;;;;;;;16.33;76.15;95381.63;4363453;32;20185;-64
2022/08/23 01:51:51;;;;;;;1.63;0.83;;;;;;;16.20;76.75;95382.69;4362277;32;20252;-64
2022/08/23 01:54:17;;;;;;;0.87;0.87;;;;;;;16.26;77.11;95392.06;4349339;32;20262;-64
2022/08/23 01:56:43;;;;;;;0.80;0.80;;;;;;;16.30;76.30;95383.06;4367404;32;20172;-64
2022/08/23 01:59:11;;;;;;;1.47;1.07;;;;;;;16.29;76.45;95392.22;4364535;32;20211;-64
2022/08/23 02:01:36;;;;;;;0.87;0.87;;;;;;;16.40;76.20;95390.72;4359423;32;20177;-64
2022/08/23 02:04:02;;;;;;;1.17;1.17;;;;;;;16.23;77.38;95393.50;4362227;32;20199;-63
2022/08/23 02:06:28;;;;;;;1.50;1.40;;;;;;;16.03;78.55;95396.97;4375780;32;20303;-64
2022/08/23 02:08:59;;;;;;;0.90;0.90;;;;;;;15.92;79.47;95404.59;4372173;32;20257;-64
2022/08/23 02:11:26;;;;;;;0.60;0.60;;;;;;;15.89;79.92;95399.91;4370086;32;20203;-64
2022/08/23 02:13:55;;;;;;;1.00;1.00;;;;;;;16.10;78.91;95397.25;4360809;32;20203;-64
2022/08/23 02:16:24;;;;;;;0.73;0.73;;;;;;;16.08;78.96;95399.47;4373221;32;20184;-63
2022/08/23 02:18:50;;;;;;;0.80;0.80;;;;;;;16.24;78.33;95399.66;4359260;32;20181;-64
2022/08/23 02:21:16;;;;;;;0.60;0.60;;;;;;;16.11;78.67;95398.81;4365793;32;20222;-64
2022/08/23 02:23:42;;;;;;;0.83;0.83;;;;;;;15.97;79.03;95400.97;4359603;32;20185;-64
2022/08/23 02:26:08;;;;;;;1.77;1.67;;;;;;;15.88;79.61;95397.56;4375123;32;20215;-64
2022/08/23 02:28:33;;;;;;;0.97;0.97;;;;;;;15.98;79.44;95410.56;4373217;32;20173;-64
2022/08/23 02:30:58;;;;;;;28.00;1.50;;;;;;;15.89;79.39;95405.25;4372850;32;21676;-64
2022/08/23 02:33:24;;;;;;;0.83;0.67;;;;;;;15.89;79.46;95407.16;4364929;32;20177;-64
2022/08/23 02:35:49;;;;;;;1.73;1.63;;;;;;;15.75;80.42;95402.81;4360929;32;20177;-64
2022/08/23 02:38:16;;;;;;;1.00;0.93;;;;;;;15.88;80.27;95408.25;4359340;32;20195;-64
2022/08/23 02:40:42;;;;;;;1.30;1.30;;;;;;;15.82;80.61;95411.09;4371110;32;20176;-64
2022/08/23 02:43:08;;;;;;;1.20;1.13;;;;;;;15.75;81.06;95416.22;4371723;32;20181;-64
2022/08/23 02:45:35;;;;;;;1.47;1.43;;;;;;;15.81;80.59;95412.22;4363311;32;20235;-64
2022/08/23 02:48:00;;;;;;;3.40;1.20;;;;;;;15.74;81.13;95414.63;4344335;32;20196;-64
2022/08/23 02:50:26;;;;;;;2.50;1.10;;;;;;;15.88;80.10;95411.72;4373113;32;20189;-63
2022/08/23 02:52:53;;;;;;;0.90;0.90;;;;;;;15.91;80.31;95407.59;4344811;32;20185;-63
2022/08/23 02:55:19;;;;;;;1.10;0.87;;;;;;;15.91;80.00;95410.28;4365261;32;20196;-64
2022/08/23 02:57:45;;;;;;;0.67;0.67;;;;;;;15.98;80.02;95418.59;4365184;32;20185;-64
2022/08/23 03:00:13;;;;;;;0.70;0.67;;;;;;;15.93;80.15;95416.09;4354368;32;20215;-64
2022/08/23 03:02:39;;;;;;;0.50;0.50;;;;;;;15.82;80.95;95423.69;4359621;32;20185;-64
2022/08/23 03:05:06;;;;;;;1.13;1.13;;;;;;;15.74;81.53;95419.19;4368746;32;20211;-64
2022/08/23 03:07:31;;;;;;;1.90;1.57;;;;;;;15.73;81.49;95422.97;4375651;32;20214;-63
2022/08/23 03:09:57;;;;;;;0.93;0.93;;;;;;;15.68;81.51;95425.84;4356615;32;20169;-64
2022/08/23 03:12:23;;;;;;;3.60;1.10;;;;;;;15.69;81.56;95433.53;4353058;32;20188;-63
2022/08/23 03:14:50;;;;;;;0.70;0.70;;;;;;;15.57;81.95;95436.13;4359601;32;20239;-64
2022/08/23 03:17:16;;;;;;;0.80;0.80;;;;;;;15.63;82.00;95432.12;4344505;32;20189;-64
2022/08/23 03:19:42;;;;;;;0.77;0.77;;;;;;;15.53;82.56;95434.38;4351741;32;20184;-64
2022/08/23 03:22:07;;;;;;;2.93;1.27;;;;;;;15.46;83.15;95437.53;4363664;32;20185;-64
2022/08/23 03:24:32;;;;;;;1.37;1.37;;;;;;;15.62;82.19;95438.59;4355562;32;20185;-64
2022/08/23 03:26:58;;;;;;;1.47;1.13;;;;;;;15.61;82.27;95437.03;4375588;32;20216;-63
2022/08/23 03:29:24;;;;;;;0.90;0.90;;;;;;;15.66;81.98;95436.84;4361160;32;20234;-64
2022/08/23 03:31:50;;;;;;;1.00;1.00;;;;;;;15.55;82.31;95440.97;4375098;32;20256;-62
2022/08/23 03:34:15;;;;;;;0.93;0.93;;;;;;;15.53;82.26;95440.50;4375201;32;20211;-61
2022/08/23 03:36:41;;;;;;;1.03;1.03;;;;;;;15.64;82.20;95447.09;4366811;32;20232;-62
2022/08/23 03:39:06;;;;;;;1.00;1.00;;;;;;;15.61;82.35;95447.72;4376301;32;20192;-61
2022/08/23 03:41:32;;;;;;;1.10;1.10;;;;;;;15.46;82.70;95445.56;4361157;32;20212;-61
2022/08/23 03:43:57;;;;;;;0.97;0.97;;;;;;;15.57;82.27;95446.81;4354616;32;20350;-61
2022/08/23 03:46:23;;;;;;;2.53;2.07;;;;;;;15.42;82.67;95449.97;4364742;32;20231;-61
2022/08/23 03:48:54;;;;;;;1.77;1.67;;;;;;;15.31;83.39;95448.78;4361910;32;20228;-64
2022/08/23 03:51:21;;;;;;;1.50;1.40;;;;;;;15.36;83.32;95448.59;4361788;32;20192;-64
2022/08/23 03:53:48;;;;;;;1.50;1.50;;;;;;;15.41;82.88;95454.53;4360973;32;20189;-64
2022/08/23 03:56:30;;;;;;;1.10;0.67;;;;;;;15.41;82.76;95464.44;4348980;32;20185;-64
2022/08/23 03:58:56;;;;;;;1.07;1.03;;;;;;;15.40;82.92;95458.31;4368578;32;20188;-64
2022/08/23 04:01:22;;;;;;;0.60;0.60;;;;;;;15.46;82.54;95461.59;4355668;32;20251;-64
2022/08/23 04:03:47;;;;;;;1.10;1.10;;;;;;;15.31;83.26;95462.12;4359537;32;20181;-64
2022/08/23 04:06:14;;;;;;;0.87;0.87;;;;;;;15.27;83.47;95469.22;4373007;32;20189;-64
2022/08/23 04:08:40;;;;;;;3.70;1.20;;;;;;;15.45;82.70;95468.06;4361089;32;20191;-65
2022/08/23 04:11:06;;;;;;;0.90;0.90;;;;;;;15.34;83.14;95466.84;4363297;32;20250;-64
2022/08/23 04:13:32;;;;;;;0.87;0.87;;;;;;;15.36;82.95;95468.09;4349020;32;20181;-64
2022/08/23 04:15:58;;;;;;;1.63;0.93;;;;;;;15.35;82.31;95476.44;4353871;32;20281;-63
2022/08/23 04:18:23;;;;;;;1.53;1.47;;;;;;;15.39;82.32;95472.78;4346874;32;20193;-60
2022/08/23 04:20:50;;;;;;;0.70;0.70;;;;;;;15.30;82.45;95479.28;4349898;32;20239;-59
2022/08/23 04:23:15;;;;;;;2.90;1.40;;;;;;;15.37;82.45;95480.38;4361401;32;20189;-59
2022/08/23 04:25:44;;;;;;;0.93;0.93;;;;;;;15.27;82.54;95477.25;4360182;32;20208;-59
2022/08/23 04:28:10;;;;;;;1.40;1.30;;;;;;;15.22;82.11;95472.06;4356091;32;20189;-65
2022/08/23 04:30:35;;;;;;;1.10;1.10;;;;;;;15.23;82.13;95481.66;4346748;32;20199;-58
2022/08/23 04:33:00;;;;;;;0.83;0.83;;;;;;;15.35;81.59;95487.13;4345412;32;20242;-58
2022/08/23 04:35:26;;;;;;;1.00;1.00;;;;;;;15.26;81.93;95484.47;4370116;32;20189;-58
2022/08/23 04:37:52;;;;;;;0.67;0.67;;;;;;;15.42;81.31;95482.06;4364403;32;20279;-59
2022/08/23 04:43:02;;;;;;;1.10;1.10;;;;;;;15.42;81.49;95495.44;4370436;32;20251;-59
2022/08/23 04:45:28;;;;;;;1.53;1.40;;;;;;;15.28;81.92;95490.28;4354726;32;20195;-59
2022/08/23 04:47:53;;;;;;;1.03;0.93;;;;;;;15.29;81.60;95499.09;4360785;32;20185;-59
2022/08/23 04:50:20;;;;;;;1.17;1.07;;;;;;;15.36;81.32;95489.50;4368317;32;20196;-57
2022/08/23 04:52:46;;;;;;;1.03;1.03;;;;;;;15.41;81.50;95494.63;4366622;32;20189;-59
2022/08/23 04:55:12;;;;;;;1.00;1.00;;;;;;;15.52;80.74;95491.63;4348984;32;20202;-58
2022/08/23 04:57:37;;;;;;;1.43;1.33;;;;;;;15.48;81.16;95492.28;4361891;32;20184;-57
2022/08/23 05:00:04;;;;;;;0.70;0.70;;;;;;;15.53;81.07;95496.66;4361985;32;20222;-59
2022/08/23 05:02:29;;;;;;;1.20;1.20;;;;;;;15.38;81.25;95497.94;4360780;32;20216;-57
2022/08/23 05:04:54;;;;;;;1.00;1.00;;;;;;;15.51;81.21;95500.75;4364818;32;20239;-59
2022/08/23 05:07:20;;;;;;;1.10;1.10;;;;;;;15.43;81.63;95508.47;4354318;32;20215;-59
2022/08/23 05:09:45;;;;;;;1.10;1.10;;;;;;;15.34;82.29;95506.94;4357155;32;20200;-57
2022/08/23 05:12:11;;;;;;;0.87;0.87;;;;;;;15.49;81.51;95506.44;4360190;32;20192;-60
2022/08/23 05:14:36;;;;;;;2.37;1.40;;;;;;;15.58;81.38;95512.56;4372430;32;20204;-58
2022/08/23 05:17:01;;;;;;;2.53;1.27;;;;;;;15.50;81.43;95512.56;4363724;32;20232;-60
2022/08/23 05:19:27;;;;;;;0.90;0.90;;;;;;;15.50;80.90;95520.59;4368274;32;20177;-59
2022/08/23 05:21:52;;;;;;;1.83;1.73;;;;;;;15.39;81.34;95517.44;4368753;32;20270;-58
2022/08/23 05:24:17;;;;;;;1.00;1.00;;;;;;;15.44;81.09;95527.97;4372807;32;20193;-59
2022/08/23 05:26:43;;;;;;;1.20;1.20;;;;;;;15.39;81.33;95530.81;4370742;32;20192;-58
2022/08/23 05:29:08;;;;;;;2.00;1.80;;;;;;;15.42;80.91;95544.34;4360996;32;20181;-60
2022/08/23 05:31:33;;;;;;;4.13;2.80;;;;;;;15.50;80.97;95534.75;4372453;32;20181;-60
2022/08/23 05:33:59;;;;;;;1.50;1.43;;;;;;;15.42;80.93;95532.84;4361515;32;20272;-60
2022/08/23 05:36:24;;;;;;;1.60;1.50;;;;;;;15.58;80.45;95531.28;4360324;32;20181;-59
2022/08/23 05:38:52;;;;;;;1.40;1.30;;;;;;;15.63;80.43;95530.31;4344539;32;20241;-59
2022/08/23 05:41:18;;;;;;;1.20;1.10;;;;;;;15.65;80.31;95531.56;4367307;32;20224;-58
2022/08/23 05:43:47;;;;;;;0.93;0.93;;;;;;;15.67;80.30;95534.72;4359582;32;20259;-58
2022/08/23 05:46:16;;;;;;;5.93;1.47;;;;;;;15.65;80.79;95542.25;4366267;32;20169;-60
2022/08/23 05:48:45;;;;;;;1.33;1.33;;;;;;;15.59;81.09;95546.22;4371006;32;20264;-60
2022/08/23 05:51:26;;;;;;;1.50;1.40;;;;;;;15.82;80.35;95544.88;4359092;32;20178;-60
2022/08/23 05:53:54;;;;;;;1.00;1.00;;;;;;;15.84;80.56;95541.09;4354086;32;20250;-60
2022/08/23 05:56:22;;;;;;;1.47;1.37;;;;;;;15.89;80.16;95556.97;4364812;32;20255;-59
2022/08/23 05:58:49;;;;;;;1.60;1.23;;;;;;;15.84;80.23;95557.94;4359106;32;20201;-59
2022/08/23 06:01:16;;;;;;;1.83;1.73;;;;;;;15.78;80.10;95557.34;4366166;32;20211;-59
2022/08/23 06:03:41;;;;;;;0.83;0.83;;;;;;;15.61;80.68;95551.25;4371783;32;20220;-60
2022/08/23 06:06:07;;;;;;;0.70;0.70;;;;;;;15.56;80.98;95560.25;4368331;32;20181;-60
2022/08/23 06:08:34;;;;;;;0.90;0.90;;;;;;;15.61;80.65;95548.56;4347874;32;20207;-59
2022/08/23 06:11:18;;;;;;;0.90;0.90;;;;;;;15.68;79.97;95560.34;4371681;32;20280;-60
2022/08/23 06:13:45;;;;;;;0.93;0.93;;;;;;;15.75;80.21;95566.00;4352756;32;20219;-60
2022/08/23 06:16:13;;;;;;;1.40;1.40;;;;;;;15.92;79.96;95569.72;4356330;32;20199;-60
2022/08/23 06:18:38;;;;;;;1.30;1.30;;;;;;;15.92;79.29;95562.47;4372731;32;20233;-59
2022/08/23 06:21:09;;;;;;;0.90;0.90;;;;;;;15.92;79.55;95559.03;4371490;32;20192;-60
2022/08/23 06:23:36;;;;;;;2.57;0.60;;;;;;;15.88;79.94;95564.22;4369226;32;20267;-59
2022/08/23 06:26:12;;;;;;;0.93;0.93;;;;;;;15.90;80.49;95569.25;4352473;32;20180;-59
2022/08/23 06:28:38;;;;;;;0.90;0.90;;;;;;;15.96;80.92;95566.09;4372342;32;20185;-60
2022/08/23 06:31:06;;;;;;;1.20;1.20;;;;;;;15.99;80.90;95567.34;4360806;32;20203;-60
2022/08/23 06:33:32;;;;;;;0.67;0.67;;;;;;;16.10;81.10;95563.19;4362568;32;20224;-60
2022/08/23 06:36:12;;;;;;;0.90;0.90;;;;;;;16.30;80.84;95565.13;4351783;32;20200;-60
2022/08/23 06:38:37;;;;;;;3.83;1.23;;;;;;;16.30;81.12;95561.66;4372450;32;20200;-60
2022/08/23 06:41:11;;;;;;;0.70;0.70;;;;;;;16.53;79.90;95556.81;4354821;32;20177;-60
2022/08/23 06:43:39;;;;;;;1.70;1.37;;;;;;;16.50;81.55;95559.03;4347467;32;20185;-60
2022/08/23 06:46:14;;;;;;;0.67;0.67;;;;;;;16.63;81.56;95561.78;4365628;32;20184;-59
2022/08/23 06:48:41;;;;;;;0.60;0.60;;;;;;;16.71;81.93;95560.97;4351137;32;20256;-63
2022/08/23 06:51:25;;;;;;;0.90;0.90;;;;;;;16.71;82.15;95563.66;4358299;32;20177;-61
2022/08/23 06:53:53;;;;;;;1.13;1.13;;;;;;;16.84;81.26;95563.38;4367133;32;20185;-60
2022/08/23 06:56:20;;;;;;;1.43;0.93;;;;;;;16.93;80.01;95559.88;4354398;32;20227;-60
2022/08/23 06:58:46;;;;;;;1.30;1.27;;;;;;;16.94;79.33;95556.87;4360738;32;20169;-60
2022/08/23 07:01:34;;;;;;;0.90;0.90;;;;;;;17.06;80.26;95559.59;4361009;32;20181;-60
2022/08/23 07:04:01;;;;;;;0.53;0.53;;;;;;;17.21;77.87;95566.28;4362306;32;20248;-59
2022/08/23 07:06:27;;;;;;;1.00;1.00;;;;;;;17.30;76.09;95571.53;4365666;32;20211;-60
2022/08/23 07:08:53;;;;;;;0.70;0.70;;;;;;;17.40;77.11;95571.16;4356182;32;20214;-60
2022/08/23 07:11:19;;;;;;;0.90;0.90;;;;;;;17.35;76.46;95571.34;4364251;32;20212;-59
2022/08/23 07:13:45;;;;;;;1.13;1.13;;;;;;;17.51;76.17;95564.22;4372376;32;20195;-60
2022/08/23 07:16:11;;;;;;;1.10;1.10;;;;;;;17.64;77.53;95563.19;4353854;32;20184;-60
2022/08/23 07:18:37;;;;;;;0.77;0.77;;;;;;;17.49;76.13;95564.56;4366898;32;20276;-59
2022/08/23 07:21:07;;;;;;;0.50;0.50;;;;;;;17.68;76.69;95566.75;4360799;32;20192;-60
2022/08/23 07:23:33;;;;;;;0.90;0.90;;;;;;;17.84;76.50;95575.78;4366137;32;20200;-60
2022/08/23 07:26:00;;;;;;;0.57;0.57;;;;;;;17.91;74.46;95566.38;4367303;32;20246;-61
2022/08/23 07:28:26;;;;;;;0.50;0.50;;;;;;;18.00;75.10;95570.53;4356057;32;20206;-60
2022/08/23 07:30:53;;;;;;;5.40;1.07;;;;;;;18.15;75.25;95577.12;4348059;32;20177;-60
2022/08/23 07:33:19;;;;;;;0.50;0.50;;;;;;;18.12;73.77;95577.78;4373757;32;20217;-60
2022/08/23 07:35:49;;;;;;;0.87;0.87;;;;;;;18.20;72.10;95574.22;4362394;32;20177;-60
2022/08/23 07:38:16;;;;;;;1.07;1.07;;;;;;;18.30;71.97;95579.16;4363852;32;20195;-59
2022/08/23 07:40:41;;;;;;;0.47;0.47;;;;;;;18.38;70.10;95583.62;4359894;32;20255;-60
2022/08/23 07:43:07;;;;;;;0.63;0.63;;;;;;;18.48;69.23;95590.47;4386987;32;20189;-60
2022/08/23 07:45:34;;;;;;;0.90;0.90;;;;;;;18.52;70.28;95585.97;4361234;32;20199;-59
2022/08/23 07:48:01;;;;;;;1.50;1.40;;;;;;;18.50;71.13;95586.31;4346070;32;20208;-57
2022/08/23 07:50:26;;;;;;;0.60;0.60;;;;;;;18.58;71.54;95583.84;4356907;32;20173;-57
2022/08/23 07:52:52;;;;;;;1.03;1.03;;;;;;;18.62;70.08;95590.16;4360282;32;20215;-57
2022/08/23 07:55:17;;;;;;;1.17;1.17;;;;;;;18.66;69.30;95586.44;4357075;32;20173;-58
2022/08/23 07:57:43;;;;;;;0.90;0.90;;;;;;;18.71;69.10;95590.78;4354862;32;20181;-58
2022/08/23 08:00:08;;;;;;;0.70;0.70;;;;;;;18.71;69.92;95590.78;4345140;32;20177;-58
2022/08/23 08:02:34;;;;;;;1.67;1.30;;;;;;;18.80;70.68;95588.78;4368951;32;20211;-57
2022/08/23 08:04:59;;;;;;;0.93;0.70;;;;;;;18.85;69.38;95599.31;4361809;32;20267;-57
2022/08/23 08:07:26;;;;;;;0.77;0.77;;;;;;;18.92;69.33;95594.13;4361772;32;20272;-58
2022/08/23 08:09:52;;;;;;;0.47;0.47;;;;;;;18.99;69.99;95599.72;4343652;32;20191;-58
2022/08/23 08:12:17;;;;;;;0.50;0.50;;;;;;;19.00;65.66;95603.97;4346495;32;20181;-57
2022/08/23 08:14:43;;;;;;;0.63;0.63;;;;;;;19.02;66.26;95599.03;4345200;32;20283;-57
2022/08/23 08:17:09;;;;;;;0.73;0.73;;;;;;;19.08;66.42;95603.06;4362149;32;20239;-57
2022/08/23 08:19:35;;;;;;;1.07;1.07;;;;;;;19.06;65.46;95610.69;4368465;32;20201;-58
2022/08/23 08:22:00;;;;;;;1.10;1.10;;;;;;;19.14;64.64;95604.38;4358998;32;20260;-60
2022/08/23 08:24:25;;;;;;;0.93;0.93;;;;;;;19.21;66.34;95604.59;4373482;32;20180;-61
2022/08/23 08:26:51;;;;;;;1.13;0.90;;;;;;;19.34;63.99;95609.91;4366879;32;20197;-61
2022/08/23 08:29:16;;;;;;;0.70;0.70;;;;;;;19.45;62.62;95611.78;4348903;32;20180;-58
2022/08/23 08:31:44;;;;;;;0.70;0.70;;;;;;;19.53;61.18;95612.81;4362639;32;20233;-60
2022/08/23 08:34:10;;;;;;;0.73;0.60;;;;;;;19.53;61.41;95615.50;4349222;32;20193;-59
2022/08/23 08:36:48;;;;;;;0.80;0.80;;;;;;;19.58;61.02;95620.63;4339712;32;20181;-58
2022/08/23 08:39:20;;;;;;;0.63;0.63;;;;;;;19.63;61.97;95615.00;4343977;32;20240;-57
2022/08/23 08:42:27;;;;;;;1.20;1.10;;;;;;;19.64;62.42;95608.50;4348537;32;20210;-57
2022/08/23 08:44:57;;;;;;;1.43;1.30;;;;;;;19.63;61.53;95606.16;4338776;32;20180;-58
2022/08/23 08:47:36;;;;;;;0.57;0.57;;;;;;;19.65;61.36;95604.69;4365762;32;20188;-57
2022/08/23 08:50:04;;;;;;;4.03;1.13;;;;;;;19.72;60.12;95614.84;4359150;32;20185;-57
2022/08/23 08:52:40;;;;;;;1.37;1.20;;;;;;;19.78;58.37;95621.53;4365612;32;21986;-57
2022/08/23 08:55:09;;;;;;;1.00;1.00;;;;;;;19.78;59.00;95618.84;4345441;32;20192;-59
2022/08/23 08:57:42;;;;;;;0.47;0.47;;;;;;;19.87;57.56;95614.88;4365761;32;20193;-59
2022/08/23 09:00:18;;;;;;;1.00;0.97;;;;;;;19.91;57.95;95612.28;4344453;32;20217;-60
2022/08/23 09:02:44;;;;;;;1.53;1.03;;;;;;;19.96;58.06;95614.72;4362729;32;20233;-59
2022/08/23 09:05:25;;;;;;;0.50;0.50;;;;;;;20.12;56.06;95606.66;4355644;32;20227;-59
2022/08/23 09:08:09;;;;;;;0.60;0.60;;;;;;;20.16;56.32;95615.62;4346817;32;20248;-60
2022/08/23 09:11:33;;;;;;;1.07;0.60;;;;;;;20.18;55.95;95610.63;4357380;32;20185;-59
2022/08/23 09:14:16;;;;;;;0.50;0.50;;;;;;;20.23;55.66;95618.47;4307371;32;20189;-59
2022/08/23 09:16:51;;;;;;;0.77;0.77;;;;;;;20.39;54.79;95618.50;4353272;32;20188;-60
2022/08/23 09:19:18;;;;;;;0.20;0.20;;;;;;;20.39;54.40;95616.59;4359125;32;20177;-59
2022/08/23 09:21:55;;;;;;;0.93;0.93;;;;;;;20.35;55.42;95615.72;4360881;32;20185;-59
2022/08/23 09:24:21;;;;;;;0.53;0.53;;;;;;;20.40;55.18;95606.59;4365210;32;20221;-60
2022/08/23 09:26:46;;;;;;;0.87;0.83;;;;;;;20.45;53.96;95609.03;4358005;32;20192;-60
2022/08/23 09:29:23;;;;;;;0.47;0.47;;;;;;;20.57;53.34;95600.84;4357806;32;20240;-59
2022/08/23 09:31:57;;;;;;;0.57;0.57;;;;;;;20.53;54.78;95606.16;4357870;32;20193;-59
2022/08/23 09:34:38;;;;;;;0.40;0.40;;;;;;;20.67;53.13;95604.91;4358214;32;20177;-57
2022/08/23 09:37:12;;;;;;;1.23;1.10;;;;;;;20.59;54.14;95604.75;4358161;32;20238;-57
2022/08/23 09:39:41;;;;;;;0.57;0.57;;;;;;;20.59;54.91;95604.75;4363207;32;20185;-58
2022/08/23 09:42:28;;;;;;;1.20;1.20;;;;;;;20.53;56.54;95602.69;4361843;32;20196;-57
2022/08/23 09:44:55;;;;;;;0.73;0.73;;;;;;;20.65;55.76;95599.09;4363593;32;20181;-58
2022/08/23 09:47:30;;;;;;;1.37;1.03;;;;;;;20.69;55.18;95594.56;4361615;32;20290;-57
2022/08/23 09:50:07;;;;;;;0.47;0.47;;;;;;;20.72;54.24;95599.25;4357534;32;20169;-57
2022/08/23 09:52:36;;;;;;;0.97;0.50;;;;;;;20.91;51.62;95604.69;4371637;32;20177;-57
2022/08/23 09:55:08;;;;;;;0.50;0.50;;;;;;;20.93;52.23;95605.91;4358829;32;20181;-57
2022/08/23 09:57:34;;;;;;;0.63;0.63;;;;;;;21.00;51.92;95602.56;4364221;32;20229;-57
2022/08/23 10:00:22;;;;;;;1.40;0.40;;;;;;;21.12;50.51;95605.16;4371730;32;20216;-57
2022/08/23 10:02:47;;;;;;;0.40;0.40;;;;;;;21.12;52.09;95604.38;4366375;32;20195;-58
2022/08/23 10:05:28;;;;;;;0.30;0.30;;;;;;;21.12;48.88;95605.16;4370413;32;20197;-57
2022/08/23 10:08:00;;;;;;;1.00;0.97;;;;;;;21.21;49.89;95596.88;4343142;32;20192;-58
2022/08/23 10:10:48;;;;;;;0.97;0.97;;;;;;;21.15;50.89;95598.28;4343231;32;20173;-59
2022/08/23 10:13:13;;;;;;;0.83;0.83;;;;;;;21.24;50.08;95601.56;4371072;32;20207;-59
2022/08/23 10:15:57;;;;;;;0.53;0.53;;;;;;;21.17;53.09;95604.09;4362175;32;20184;-58
2022/08/23 10:18:52;;;;;;;1.30;1.30;;;;;;;21.30;48.89;95599.38;4353748;32;20260;-59
2022/08/23 10:21:34;;;;;;;0.40;0.40;;;;;;;21.31;48.58;95595.53;4353346;32;20272;-59
2022/08/23 10:24:13;;;;;;;2.00;0.97;;;;;;;21.17;49.89;95588.69;4357276;32;20181;-57
2022/08/23 10:29:36;;;;;;;1.60;1.40;;;;;;;21.13;48.77;95595.16;4362325;32;20199;-57
2022/08/23 10:30:15;;;;;;;1.00;0.97;;;;;;;21.14;49.22;95586.69;4350671;32;20181;-57
2022/08/23 10:32:57;;;;;;;0.20;0.20;;;;;;;21.39;47.59;95592.62;4318297;32;20193;-62
2022/08/23 10:35:51;;;;;;;0.93;0.93;;;;;;;21.50;48.16;95590.13;4359123;32;20203;-57
2022/08/23 10:38:25;;;;;;;1.07;0.73;;;;;;;21.45;49.10;95588.50;4360590;32;20177;-57
2022/08/23 10:41:15;;;;;;;0.60;0.60;;;;;;;21.52;47.40;95585.16;4360662;32;20172;-56
2022/08/23 10:43:50;;;;;;;0.40;0.40;;;;;;;21.68;46.45;95585.84;4370389;32;20177;-58
2022/08/23 10:46:16;;;;;;;0.50;0.50;;;;;;;21.65;46.42;95588.47;4375767;32;20197;-57
2022/08/23 10:48:55;;;;;;;0.50;0.50;;;;;;;21.61;45.42;95580.34;4352729;32;20185;-57
2022/08/23 10:51:35;;;;;;;0.20;0.20;;;;;;;21.69;47.29;95583.94;4358760;32;20226;-57
2022/08/23 10:54:12;;;;;;;0.63;0.63;;;;;;;21.83;47.48;95587.66;4365705;32;22518;-58
2022/08/23 10:56:38;;;;;;;0.60;0.60;;;;;;;21.82;47.93;95578.00;4361612;32;20230;-60
2022/08/23 10:59:09;;;;;;;0.30;0.30;;;;;;;21.85;48.11;95579.19;4374732;32;20252;-60
2022/08/23 11:01:52;;;;;;;0.70;0.70;;;;;;;21.90;48.09;95573.50;4347002;32;20191;-59
2022/08/23 11:04:33;;;;;;;0.70;0.70;;;;;;;22.09;47.28;95573.47;4359259;32;20188;-59
2022/08/23 11:07:13;;;;;;;0.63;0.63;;;;;;;22.15;47.02;95580.16;4355419;32;20272;-59
2022/08/23 11:09:53;;;;;;;0.67;0.67;;;;;;;22.13;46.97;95587.84;4373784;32;20196;-57
2022/08/23 11:12:26;;;;;;;0.50;0.50;;;;;;;22.02;45.69;95583.41;4359966;32;20211;-57
2022/08/23 11:14:55;;;;;;;0.83;0.60;;;;;;;21.99;44.79;95581.37;4360899;32;20200;-57
2022/08/23 11:17:59;;;;;;;0.70;0.70;;;;;;;22.17;44.57;95580.59;4368514;32;20209;-57
2022/08/23 11:20:49;;;;;;;0.50;0.50;;;;;;;22.09;45.69;95572.69;4363151;32;20220;-57
2022/08/23 11:23:15;;;;;;;0.47;0.47;;;;;;;21.95;44.85;95568.59;4364394;32;20199;-57
2022/08/23 11:25:43;;;;;;;0.80;0.80;;;;;;;21.92;43.57;95560.41;4368440;32;20193;-57
2022/08/23 11:28:20;;;;;;;0.50;0.50;;;;;;;21.98;42.32;95569.03;4365956;32;20192;-57
2022/08/23 11:30:58;;;;;;;0.30;0.30;;;;;;;22.22;43.18;95569.47;4360451;32;20203;-57
2022/08/23 11:33:33;;;;;;;0.40;0.40;;;;;;;22.29;45.08;95571.50;4374883;32;20199;-57
2022/08/23 11:36:07;;;;;;;0.40;0.17;;;;;;;22.37;44.02;95564.28;4358295;32;20205;-57
2022/08/23 11:38:42;;;;;;;0.77;0.77;;;;;;;22.42;42.71;95570.16;4371264;32;20180;-57
2022/08/23 11:41:21;;;;;;;0.20;0.20;;;;;;;22.39;42.34;95568.19;4361012;32;20294;-58
2022/08/23 11:43:55;;;;;;;0.33;0.33;;;;;;;22.36;44.47;95571.63;4374437;32;20206;-57
2022/08/23 11:46:26;;;;;;;0.67;0.50;;;;;;;22.25;46.09;95576.84;4367772;32;20204;-57
2022/08/23 11:49:10;;;;;;;0.50;0.50;;;;;;;22.18;47.44;95570.56;4367061;32;20260;-57
2022/08/23 11:52:09;;;;;;;0.50;0.50;;;;;;;22.10;48.25;95561.53;4357446;32;20189;-57
2022/08/23 11:54:58;;;;;;;2.73;1.07;;;;;;;22.04;47.87;95556.78;4343931;32;20215;-56
2022/08/23 11:57:59;;;;;;;0.20;0.20;;;;;;;22.24;47.35;95571.78;4358944;32;20191;-57